Waipara, New Zealand
Current Conditions -  °F | °C
As of 10:00 AM on Monday 26 Jan 2015 (Local Time) from NZCH Reporting Station
Clear Clear  
Wind Chill: 70°   Ceiling: Unl
Heat Index: 70°   Visibility: 6mi
Dew Point: 59°   Wind: 18mph
Humidity: 68%   Direction: 80°E
Pressure: 29.91"   Gusts: NA
Location:  43.06°S, 172.76°E
Report Text: NZCH 252200Z AUTO 08016KT 9999 NCD 21/15 Q1013 NOSIG
Loading
Personal Weather Stations






























Interactive Weather Map New forecast layout! Learn more

10-Day Weather Forecast

Advertisements
Track Severe Weather on mobile